sensor_id;sensor_type;location;lat;lon;timestamp;pressure;altitude;pressure_sealevel;temperature
74915;BMP280;63475;45.140;-75.616;2023-01-28T00:00:06;100473.50;;;-4.25
74915;BMP280;63475;45.140;-75.616;2023-01-28T00:01:11;100477.94;;;-4.17
74915;BMP280;63475;45.140;-75.616;2023-01-28T00:02:12;100471.38;;;-4.23
74915;BMP280;63475;45.140;-75.616;2023-01-28T00:03:13;100475.03;;;-4.24
74915;BMP280;63475;45.140;-75.616;2023-01-28T00:04:15;100476.09;;;-4.25
74915;BMP280;63475;45.140;-75.616;2023-01-28T00:05:16;100450.69;;;-4.46
74915;BMP280;63475;45.140;-75.616;2023-01-28T00:06:18;100478.97;;;-4.27
74915;BMP280;63475;45.140;-75.616;2023-01-28T00:07:19;100474.38;;;-4.30
74915;BMP280;63475;45.140;-75.616;2023-01-28T00:08:21;100476.09;;;-4.25
74915;BMP280;63475;45.140;-75.616;2023-01-28T00:09:21;100477.31;;;-4.23
74915;BMP280;63475;45.140;-75.616;2023-01-28T00:10:22;100471.47;;;-4.29
74915;BMP280;63475;45.140;-75.616;2023-01-28T00:11:23;100477.63;;;-4.24
74915;BMP280;63475;45.140;-75.616;2023-01-28T00:12:24;100468.13;;;-4.29
74915;BMP280;63475;45.140;-75.616;2023-01-28T00:13:27;100484.00;;;-4.22
74915;BMP280;63475;45.140;-75.616;2023-01-28T00:14:28;100479.59;;;-4.21
74915;BMP280;63475;45.140;-75.616;2023-01-28T00:15:29;100484.47;;;-4.20
74915;BMP280;63475;45.140;-75.616;2023-01-28T00:16:30;100482.34;;;-4.18
74915;BMP280;63475;45.140;-75.616;2023-01-28T00:17:31;100483.13;;;-4.17
74915;BMP280;63475;45.140;-75.616;2023-01-28T00:18:32;100472.44;;;-4.24
74915;BMP280;63475;45.140;-75.616;2023-01-28T00:19:33;100472.63;;;-4.21
74915;BMP280;63475;45.140;-75.616;2023-01-28T00:20:34;100457.63;;;-4.33
74915;BMP280;63475;45.140;-75.616;2023-01-28T00:21:35;100476.59;;;-4.15
74915;BMP280;63475;45.140;-75.616;2023-01-28T00:22:36;100476.31;;;-4.13
74915;BMP280;63475;45.140;-75.616;2023-01-28T00:23:38;100475.25;;;-4.12
74915;BMP280;63475;45.140;-75.616;2023-01-28T00:24:39;100479.38;;;-4.11
74915;BMP280;63475;45.140;-75.616;2023-01-28T00:25:40;100466.44;;;-4.11
74915;BMP280;63475;45.140;-75.616;2023-01-28T00:26:41;100464.91;;;-4.12
74915;BMP280;63475;45.140;-75.616;2023-01-28T00:27:43;100470.72;;;-4.07
74915;BMP280;63475;45.140;-75.616;2023-01-28T00:28:44;100455.03;;;-4.10
74915;BMP280;63475;45.140;-75.616;2023-01-28T00:29:45;100472.13;;;-4.01
74915;BMP280;63475;45.140;-75.616;2023-01-28T00:30:47;100461.44;;;-4.08
74915;BMP280;63475;45.140;-75.616;2023-01-28T00:31:48;100467.69;;;-4.00
74915;BMP280;63475;45.140;-75.616;2023-01-28T00:32:49;100459.47;;;-4.02
74915;BMP280;63475;45.140;-75.616;2023-01-28T00:33:50;100479.44;;;-3.94
74915;BMP280;63475;45.140;-75.616;2023-01-28T00:34:51;100465.13;;;-4.00
74915;BMP280;63475;45.140;-75.616;2023-01-28T00:36:02;100470.63;;;-3.93
74915;BMP280;63475;45.140;-75.616;2023-01-28T00:37:04;100451.84;;;-4.07
74915;BMP280;63475;45.140;-75.616;2023-01-28T00:38:06;100428.94;;;-4.22
74915;BMP280;63475;45.140;-75.616;2023-01-28T00:39:13;100475.97;;;-3.89
74915;BMP280;63475;45.140;-75.616;2023-01-28T00:40:15;100456.00;;;-3.98
74915;BMP280;63475;45.140;-75.616;2023-01-28T00:41:17;100469.00;;;-3.89
74915;BMP280;63475;45.140;-75.616;2023-01-28T00:42:21;100470.66;;;-3.84
74915;BMP280;63475;45.140;-75.616;2023-01-28T00:43:22;100462.59;;;-3.91
74915;BMP280;63475;45.140;-75.616;2023-01-28T00:44:23;100456.34;;;-3.90
74915;BMP280;63475;45.140;-75.616;2023-01-28T00:45:24;100459.09;;;-3.87
74915;BMP280;63475;45.140;-75.616;2023-01-28T00:46:25;100468.75;;;-3.79
74915;BMP280;63475;45.140;-75.616;2023-01-28T00:47:26;100460.38;;;-3.76
74915;BMP280;63475;45.140;-75.616;2023-01-28T00:48:27;100467.84;;;-3.74
74915;BMP280;63475;45.140;-75.616;2023-01-28T00:49:28;100463.44;;;-3.74
74915;BMP280;63475;45.140;-75.616;2023-01-28T00:50:30;100466.63;;;-3.68
74915;BMP280;63475;45.140;-75.616;2023-01-28T00:51:31;100463.13;;;-3.63
74915;BMP280;63475;45.140;-75.616;2023-01-28T00:52:32;100437.81;;;-3.84
74915;BMP280;63475;45.140;-75.616;2023-01-28T00:53:33;100469.97;;;-3.68
74915;BMP280;63475;45.140;-75.616;2023-01-28T00:54:35;100467.41;;;-3.68
74915;BMP280;63475;45.140;-75.616;2023-01-28T00:55:37;100468.91;;;-3.67
74915;BMP280;63475;45.140;-75.616;2023-01-28T00:56:38;100464.03;;;-3.68
74915;BMP280;63475;45.140;-75.616;2023-01-28T00:57:39;100435.38;;;-3.80
74915;BMP280;63475;45.140;-75.616;2023-01-28T00:58:40;100450.78;;;-3.75
74915;BMP280;63475;45.140;-75.616;2023-01-28T00:59:42;100455.97;;;-3.67
74915;BMP280;63475;45.140;-75.616;2023-01-28T01:00:43;100459.78;;;-3.64
74915;BMP280;63475;45.140;-75.616;2023-01-28T01:01:44;100445.47;;;-3.61
74915;BMP280;63475;45.140;-75.616;2023-01-28T01:02:45;100443.34;;;-3.59
74915;BMP280;63475;45.140;-75.616;2023-01-28T01:03:46;100442.28;;;-3.58
74915;BMP280;63475;45.140;-75.616;2023-01-28T01:04:47;100444.59;;;-3.57
74915;BMP280;63475;45.140;-75.616;2023-01-28T01:06:00;100417.63;;;-3.64
74915;BMP280;63475;45.140;-75.616;2023-01-28T01:07:02;100431.81;;;-3.53
74915;BMP280;63475;45.140;-75.616;2023-01-28T01:08:03;100432.28;;;-3.51
74915;BMP280;63475;45.140;-75.616;2023-01-28T01:09:07;100430.16;;;-3.49
74915;BMP280;63475;45.140;-75.616;2023-01-28T01:10:11;100436.53;;;-3.47
74915;BMP280;63475;45.140;-75.616;2023-01-28T01:11:13;100432.75;;;-3.49
74915;BMP280;63475;45.140;-75.616;2023-01-28T01:12:14;100431.84;;;-3.45
74915;BMP280;63475;45.140;-75.616;2023-01-28T01:13:15;100443.09;;;-3.41
74915;BMP280;63475;45.140;-75.616;2023-01-28T01:14:15;100443.56;;;-3.39
74915;BMP280;63475;45.140;-75.616;2023-01-28T01:15:17;100443.25;;;-3.37
74915;BMP280;63475;45.140;-75.616;2023-01-28T01:16:19;100444.50;;;-3.34
74915;BMP280;63475;45.140;-75.616;2023-01-28T01:17:20;100446.78;;;-3.33
74915;BMP280;63475;45.140;-75.616;2023-01-28T01:18:21;100445.13;;;-3.29
74915;BMP280;63475;45.140;-75.616;2023-01-28T01:19:22;100444.34;;;-3.29
74915;BMP280;63475;45.140;-75.616;2023-01-28T01:20:26;100445.56;;;-3.27
74915;BMP280;63475;45.140;-75.616;2023-01-28T01:21:29;100434.91;;;-3.34
74915;BMP280;63475;45.140;-75.616;2023-01-28T01:22:34;100445.44;;;-3.22
74915;BMP280;63475;45.140;-75.616;2023-01-28T01:23:35;100443.16;;;-3.23
74915;BMP280;63475;45.140;-75.616;2023-01-28T01:24:36;100442.25;;;-3.19
74915;BMP280;63475;45.140;-75.616;2023-01-28T01:25:38;100439.34;;;-3.17
74915;BMP280;63475;45.140;-75.616;2023-01-28T01:26:39;100431.44;;;-3.21
74915;BMP280;63475;45.140;-75.616;2023-01-28T01:27:41;100435.84;;;-3.13
74915;BMP280;63475;45.140;-75.616;2023-01-28T01:28:42;100432.97;;;-3.11
74915;BMP280;63475;45.140;-75.616;2023-01-28T01:29:43;100441.94;;;-3.09
74915;BMP280;63475;45.140;-75.616;2023-01-28T01:30:45;100433.88;;;-3.07
74915;BMP280;63475;45.140;-75.616;2023-01-28T01:31:46;100435.69;;;-3.08
74915;BMP280;63475;45.140;-75.616;2023-01-28T01:32:47;100410.72;;;-3.21
74915;BMP280;63475;45.140;-75.616;2023-01-28T01:33:51;100432.94;;;-3.02
74915;BMP280;63475;45.140;-75.616;2023-01-28T01:34:52;100412.09;;;-3.15
74915;BMP280;63475;45.140;-75.616;2023-01-28T01:35:53;100420.16;;;-3.08
74915;BMP280;63475;45.140;-75.616;2023-01-28T01:36:55;100422.88;;;-2.95
74915;BMP280;63475;45.140;-75.616;2023-01-28T01:37:57;100429.59;;;-2.94
74915;BMP280;63475;45.140;-75.616;2023-01-28T01:38:58;100423.34;;;-2.93
74915;BMP280;63475;45.140;-75.616;2023-01-28T01:39:59;100428.66;;;-2.90
74915;BMP280;63475;45.140;-75.616;2023-01-28T01:41:02;100424.72;;;-2.87
74915;BMP280;63475;45.140;-75.616;2023-01-28T01:42:03;100428.84;;;-2.86
74915;BMP280;63475;45.140;-75.616;2023-01-28T01:43:17;100421.06;;;-2.86
74915;BMP280;63475;45.140;-75.616;2023-01-28T01:45:59;100424.28;;;-2.81
74915;BMP280;63475;45.140;-75.616;2023-01-28T01:47:01;100407.03;;;-2.94
74915;BMP280;63475;45.140;-75.616;2023-01-28T01:48:08;100427.78;;;-2.77
74915;BMP280;63475;45.140;-75.616;2023-01-28T01:49:39;100427.47;;;-2.75
74915;BMP280;63475;45.140;-75.616;2023-01-28T01:50:55;100421.69;;;-2.72
74915;BMP280;63475;45.140;-75.616;2023-01-28T01:52:06;100431.44;;;-2.69
74915;BMP280;63475;45.140;-75.616;2023-01-28T01:53:11;100428.53;;;-2.67
74915;BMP280;63475;45.140;-75.616;2023-01-28T01:54:14;100348.09;;;-3.14
74915;BMP280;63475;45.140;-75.616;2023-01-28T01:55:18;100432.78;;;-2.63
74915;BMP280;63475;45.140;-75.616;2023-01-28T01:56:24;100422.88;;;-2.61
74915;BMP280;63475;45.140;-75.616;2023-01-28T01:57:30;100425.16;;;-2.59
74915;BMP280;63475;45.140;-75.616;2023-01-28T01:58:34;100410.06;;;-2.66
74915;BMP280;63475;45.140;-75.616;2023-01-28T01:59:37;100421.50;;;-2.58
74915;BMP280;63475;45.140;-75.616;2023-01-28T02:00:39;100421.19;;;-2.57
74915;BMP280;63475;45.140;-75.616;2023-01-28T02:01:41;100417.69;;;-2.61
74915;BMP280;63475;45.140;-75.616;2023-01-28T02:02:47;100417.50;;;-2.56
74915;BMP280;63475;45.140;-75.616;2023-01-28T02:04:01;100412.81;;;-2.54
74915;BMP280;63475;45.140;-75.616;2023-01-28T02:05:03;100415.84;;;-2.52
74915;BMP280;63475;45.140;-75.616;2023-01-28T02:06:04;100412.19;;;-2.51
74915;BMP280;63475;45.140;-75.616;2023-01-28T02:07:08;100409.28;;;-2.49
74915;BMP280;63475;45.140;-75.616;2023-01-28T02:08:10;100411.25;;;-2.46
74915;BMP280;63475;45.140;-75.616;2023-01-28T02:09:30;100419.50;;;-2.44
74915;BMP280;63475;45.140;-75.616;2023-01-28T02:10:31;100417.66;;;-2.44
74915;BMP280;63475;45.140;-75.616;2023-01-28T02:11:33;100415.50;;;-2.41
74915;BMP280;63475;45.140;-75.616;2023-01-28T02:12:37;100411.09;;;-2.41
74915;BMP280;63475;45.140;-75.616;2023-01-28T02:13:41;100403.00;;;-2.39
74915;BMP280;63475;45.140;-75.616;2023-01-28T02:14:56;100390.81;;;-2.48
74915;BMP280;63475;45.140;-75.616;2023-01-28T02:16:00;100401.00;;;-2.34
74915;BMP280;63475;45.140;-75.616;2023-01-28T02:17:03;100398.25;;;-2.37
74915;BMP280;63475;45.140;-75.616;2023-01-28T02:18:04;100391.25;;;-2.37
74915;BMP280;63475;45.140;-75.616;2023-01-28T02:19:06;100392.91;;;-2.32
74915;BMP280;63475;45.140;-75.616;2023-01-28T02:20:13;100409.34;;;-2.28
74915;BMP280;63475;45.140;-75.616;2023-01-28T02:26:14;100390.25;;;-2.24
74915;BMP280;63475;45.140;-75.616;2023-01-28T02:29:43;100394.06;;;-2.21
74915;BMP280;63475;45.140;-75.616;2023-01-28T02:32:13;100389.63;;;-2.21
74915;BMP280;63475;45.140;-75.616;2023-01-28T02:33:37;100395.59;;;-2.20
74915;BMP280;63475;45.140;-75.616;2023-01-28T02:34:42;100391.63;;;-2.18
74915;BMP280;63475;45.140;-75.616;2023-01-28T02:35:48;100387.22;;;-2.17
74915;BMP280;63475;45.140;-75.616;2023-01-28T02:37:02;100396.50;;;-2.16
74915;BMP280;63475;45.140;-75.616;2023-01-28T02:38:11;100379.41;;;-2.17
74915;BMP280;63475;45.140;-75.616;2023-01-28T02:39:28;100393.16;;;-2.17
74915;BMP280;63475;45.140;-75.616;2023-01-28T02:40:31;100383.22;;;-2.15
74915;BMP280;63475;45.140;-75.616;2023-01-28T02:41:43;100331.63;;;-2.46
74915;BMP280;63475;45.140;-75.616;2023-01-28T02:42:45;100378.03;;;-2.15
74915;BMP280;63475;45.140;-75.616;2023-01-28T02:43:46;100378.81;;;-2.14
74915;BMP280;63475;45.140;-75.616;2023-01-28T02:44:47;100381.09;;;-2.13
74915;BMP280;63475;45.140;-75.616;2023-01-28T02:45:48;100376.34;;;-2.10
74915;BMP280;63475;45.140;-75.616;2023-01-28T02:47:12;100376.78;;;-2.08
74915;BMP280;63475;45.140;-75.616;2023-01-28T02:48:31;100377.53;;;-2.08
74915;BMP280;63475;45.140;-75.616;2023-01-28T02:49:44;100366.72;;;-2.10
74915;BMP280;63475;45.140;-75.616;2023-01-28T02:51:11;100299.19;;;-2.52
74915;BMP280;63475;45.140;-75.616;2023-01-28T02:54:02;100365.00;;;-2.06
74915;BMP280;63475;45.140;-75.616;2023-01-28T02:55:12;100354.63;;;-2.06
74915;BMP280;63475;45.140;-75.616;2023-01-28T02:57:46;100360.59;;;-2.05
74915;BMP280;63475;45.140;-75.616;2023-01-28T02:59:02;100358.44;;;-2.03
74915;BMP280;63475;45.140;-75.616;2023-01-28T03:00:33;100338.94;;;-2.09
74915;BMP280;63475;45.140;-75.616;2023-01-28T03:01:42;100350.78;;;-2.00
74915;BMP280;63475;45.140;-75.616;2023-01-28T03:02:57;100324.19;;;-2.18
74915;BMP280;63475;45.140;-75.616;2023-01-28T03:07:04;100352.31;;;-1.99
74915;BMP280;63475;45.140;-75.616;2023-01-28T03:08:07;100324.31;;;-2.14
74915;BMP280;63475;45.140;-75.616;2023-01-28T03:09:28;100344.50;;;-1.99
74915;BMP280;63475;45.140;-75.616;2023-01-28T03:10:30;100347.88;;;-1.98
74915;BMP280;63475;45.140;-75.616;2023-01-28T03:11:35;100345.28;;;-1.98
74915;BMP280;63475;45.140;-75.616;2023-01-28T03:12:57;100323.56;;;-2.15
74915;BMP280;63475;45.140;-75.616;2023-01-28T03:14:18;100345.28;;;-1.98
74915;BMP280;63475;45.140;-75.616;2023-01-28T03:15:45;100337.50;;;-1.98
74915;BMP280;63475;45.140;-75.616;2023-01-28T03:17:10;100322.44;;;-2.05
74915;BMP280;63475;45.140;-75.616;2023-01-28T03:18:46;100339.59;;;-1.92
74915;BMP280;63475;45.140;-75.616;2023-01-28T03:20:08;100330.91;;;-1.96
74915;BMP280;63475;45.140;-75.616;2023-01-28T03:21:32;100340.22;;;-1.95
74915;BMP280;63475;45.140;-75.616;2023-01-28T03:22:54;100328.31;;;-1.96
74915;BMP280;63475;45.140;-75.616;2023-01-28T03:24:30;100323.00;;;-1.99
74915;BMP280;63475;45.140;-75.616;2023-01-28T03:25:53;100332.00;;;-1.97
74915;BMP280;63475;45.140;-75.616;2023-01-28T03:27:38;100304.44;;;-2.10
74915;BMP280;63475;45.140;-75.616;2023-01-28T03:29:07;100314.13;;;-1.98
74915;BMP280;63475;45.140;-75.616;2023-01-28T03:30:38;100323.13;;;-1.96
74915;BMP280;63475;45.140;-75.616;2023-01-28T03:31:59;100303.81;;;-2.07
74915;BMP280;63475;45.140;-75.616;2023-01-28T03:33:19;100322.25;;;-2.00
74915;BMP280;63475;45.140;-75.616;2023-01-28T03:34:40;100290.41;;;-2.09
74915;BMP280;63475;45.140;-75.616;2023-01-28T03:36:01;100300.41;;;-1.99
74915;BMP280;63475;45.140;-75.616;2023-01-28T03:37:21;100298.88;;;-2.00
74915;BMP280;63475;45.140;-75.616;2023-01-28T03:38:22;100287.19;;;-2.06
74915;BMP280;63475;45.140;-75.616;2023-01-28T03:39:27;100291.09;;;-2.00
74915;BMP280;63475;45.140;-75.616;2023-01-28T03:40:28;100284.41;;;-2.01
74915;BMP280;63475;45.140;-75.616;2023-01-28T03:41:29;100276.16;;;-2.03
74915;BMP280;63475;45.140;-75.616;2023-01-28T03:42:30;100277.03;;;-1.99
74915;BMP280;63475;45.140;-75.616;2023-01-28T03:43:32;100277.81;;;-1.98
74915;BMP280;63475;45.140;-75.616;2023-01-28T03:44:34;100282.56;;;-2.00
74915;BMP280;63475;45.140;-75.616;2023-01-28T03:45:53;100286.53;;;-2.03
74915;BMP280;63475;45.140;-75.616;2023-01-28T03:46:55;100267.38;;;-2.10
74915;BMP280;63475;45.140;-75.616;2023-01-28T03:47:55;100276.16;;;-2.03
74915;BMP280;63475;45.140;-75.616;2023-01-28T03:48:56;100277.69;;;-2.02
74915;BMP280;63475;45.140;-75.616;2023-01-28T03:49:58;100278.75;;;-2.03
74915;BMP280;63475;45.140;-75.616;2023-01-28T03:50:59;100276.47;;;-2.04
74915;BMP280;63475;45.140;-75.616;2023-01-28T03:52:00;100278.00;;;-2.03
74915;BMP280;63475;45.140;-75.616;2023-01-28T03:53:01;100274.00;;;-2.01
74915;BMP280;63475;45.140;-75.616;2023-01-28T03:54:12;100268.81;;;-2.01
74915;BMP280;63475;45.140;-75.616;2023-01-28T03:55:13;100270.97;;;-2.03
74915;BMP280;63475;45.140;-75.616;2023-01-28T03:56:14;100267.31;;;-2.02
74915;BMP280;63475;45.140;-75.616;2023-01-28T03:57:21;100263.19;;;-2.03
74915;BMP280;63475;45.140;-75.616;2023-01-28T03:58:23;100195.16;;;-2.50
74915;BMP280;63475;45.140;-75.616;2023-01-28T03:59:45;100260.59;;;-2.03
74915;BMP280;63475;45.140;-75.616;2023-01-28T04:00:49;100227.03;;;-2.29
74915;BMP280;63475;45.140;-75.616;2023-01-28T04:01:50;100244.09;;;-2.19
74915;BMP280;63475;45.140;-75.616;2023-01-28T04:02:51;100268.13;;;-2.10
74915;BMP280;63475;45.140;-75.616;2023-01-28T04:03:52;100259.59;;;-2.10
74915;BMP280;63475;45.140;-75.616;2023-01-28T04:04:53;100264.00;;;-2.11
74915;BMP280;63475;45.140;-75.616;2023-01-28T04:06:59;100257.00;;;-2.10
74915;BMP280;63475;45.140;-75.616;2023-01-28T04:08:00;100245.28;;;-2.17
74915;BMP280;63475;45.140;-75.616;2023-01-28T04:09:01;100254.41;;;-2.10
74915;BMP280;63475;45.140;-75.616;2023-01-28T04:10:02;100249.41;;;-2.16
74915;BMP280;63475;45.140;-75.616;2023-01-28T04:11:03;100232.03;;;-2.24
74915;BMP280;63475;45.140;-75.616;2023-01-28T04:12:15;100232.16;;;-2.20
74915;BMP280;63475;45.140;-75.616;2023-01-28T04:13:16;100241.63;;;-2.16
74915;BMP280;63475;45.140;-75.616;2023-01-28T04:14:18;100240.22;;;-2.13
74915;BMP280;63475;45.140;-75.616;2023-01-28T04:15:19;100237.94;;;-2.15
74915;BMP280;63475;45.140;-75.616;2023-01-28T04:16:20;100239.78;;;-2.15
74915;BMP280;63475;45.140;-75.616;2023-01-28T04:17:21;100221.97;;;-2.25
74915;BMP280;63475;45.140;-75.616;2023-01-28T04:18:21;100234.75;;;-2.20
74915;BMP280;63475;45.140;-75.616;2023-01-28T04:19:27;100225.00;;;-2.23
74915;BMP280;63475;45.140;-75.616;2023-01-28T04:20:29;100226.53;;;-2.22
74915;BMP280;63475;45.140;-75.616;2023-01-28T04:21:30;100225.47;;;-2.21
74915;BMP280;63475;45.140;-75.616;2023-01-28T04:22:31;100228.53;;;-2.19
74915;BMP280;63475;45.140;-75.616;2023-01-28T04:23:31;100230.03;;;-2.18
74915;BMP280;63475;45.140;-75.616;2023-01-28T04:24:32;100211.47;;;-2.29
74915;BMP280;63475;45.140;-75.616;2023-01-28T04:25:33;100227.59;;;-2.23
74915;BMP280;63475;45.140;-75.616;2023-01-28T04:26:34;100220.25;;;-2.21
74915;BMP280;63475;45.140;-75.616;2023-01-28T04:27:35;100212.16;;;-2.20
74915;BMP280;63475;45.140;-75.616;2023-01-28T04:28:36;100220.84;;;-2.36
74915;BMP280;63475;45.140;-75.616;2023-01-28T04:29:37;100220.22;;;-2.33
74915;BMP280;63475;45.140;-75.616;2023-01-28T04:30:38;100221.91;;;-2.37
74915;BMP280;63475;45.140;-75.616;2023-01-28T04:31:39;100223.44;;;-2.36
74915;BMP280;63475;45.140;-75.616;2023-01-28T04:32:40;100212.94;;;-2.40
74915;BMP280;63475;45.140;-75.616;2023-01-28T04:33:41;100218.38;;;-2.33
74915;BMP280;63475;45.140;-75.616;2023-01-28T04:34:42;100195.91;;;-2.50
74915;BMP280;63475;45.140;-75.616;2023-01-28T04:35:43;100215.78;;;-2.33
74915;BMP280;63475;45.140;-75.616;2023-01-28T04:36:44;100193.00;;;-2.48
74915;BMP280;63475;45.140;-75.616;2023-01-28T04:37:44;100198.38;;;-2.53
74915;BMP280;63475;45.140;-75.616;2023-01-28T04:38:45;100207.94;;;-2.45
74915;BMP280;63475;45.140;-75.616;2023-01-28T04:39:46;100209.66;;;-2.58
74915;BMP280;63475;45.140;-75.616;2023-01-28T04:40:51;100214.28;;;-2.63
74915;BMP280;63475;45.140;-75.616;2023-01-28T04:41:52;100209.03;;;-2.55
74915;BMP280;63475;45.140;-75.616;2023-01-28T04:42:56;100187.66;;;-2.72
74915;BMP280;63475;45.140;-75.616;2023-01-28T04:43:58;100211.88;;;-2.68
74915;BMP280;63475;45.140;-75.616;2023-01-28T04:44:58;100205.34;;;-2.75
74915;BMP280;63475;45.140;-75.616;2023-01-28T04:45:59;100205.47;;;-2.71
74915;BMP280;63475;45.140;-75.616;2023-01-28T04:47:00;100192.78;;;-2.64
74915;BMP280;63475;45.140;-75.616;2023-01-28T04:48:01;100136.50;;;-2.93
74915;BMP280;63475;45.140;-75.616;2023-01-28T04:49:02;100195.63;;;-2.57
74915;BMP280;63475;45.140;-75.616;2023-01-28T04:50:04;100170.53;;;-2.65
74915;BMP280;63475;45.140;-75.616;2023-01-28T04:51:05;100193.72;;;-2.68
74915;BMP280;63475;45.140;-75.616;2023-01-28T04:52:06;100193.78;;;-2.56
74915;BMP280;63475;45.140;-75.616;2023-01-28T04:53:07;100181.97;;;-2.66
74915;BMP280;63475;45.140;-75.616;2023-01-28T04:54:08;100187.47;;;-2.67
74915;BMP280;63475;45.140;-75.616;2023-01-28T04:55:10;100168.00;;;-2.73
74915;BMP280;63475;45.140;-75.616;2023-01-28T04:56:11;100186.66;;;-2.59
74915;BMP280;63475;45.140;-75.616;2023-01-28T04:57:12;100190.44;;;-2.57
74915;BMP280;63475;45.140;-75.616;2023-01-28T04:58:13;100185.00;;;-2.64
74915;BMP280;63475;45.140;-75.616;2023-01-28T04:59:13;100183.75;;;-2.58
74915;BMP280;63475;45.140;-75.616;2023-01-28T05:00:15;100165.22;;;-2.68
74915;BMP280;63475;45.140;-75.616;2023-01-28T05:01:16;100185.25;;;-2.57
74915;BMP280;63475;45.140;-75.616;2023-01-28T05:02:17;100171.22;;;-2.56
74915;BMP280;63475;45.140;-75.616;2023-01-28T05:03:18;100182.22;;;-2.59
74915;BMP280;63475;45.140;-75.616;2023-01-28T05:04:18;100186.78;;;-2.56
74915;BMP280;63475;45.140;-75.616;2023-01-28T05:05:20;100172.03;;;-2.64
74915;BMP280;63475;45.140;-75.616;2023-01-28T05:06:20;100167.44;;;-2.58
74915;BMP280;63475;45.140;-75.616;2023-01-28T05:07:22;100175.97;;;-2.58
74915;BMP280;63475;45.140;-75.616;2023-01-28T05:08:23;100157.34;;;-2.51
74915;BMP280;63475;45.140;-75.616;2023-01-28T05:09:24;100160.25;;;-2.53
74915;BMP280;63475;45.140;-75.616;2023-01-28T05:10:26;100163.41;;;-2.47
74915;BMP280;63475;45.140;-75.616;2023-01-28T05:11:27;100161.78;;;-2.52
74915;BMP280;63475;45.140;-75.616;2023-01-28T05:12:28;100156.59;;;-2.52
74915;BMP280;63475;45.140;-75.616;2023-01-28T05:13:29;100144.94;;;-2.46
74915;BMP280;63475;45.140;-75.616;2023-01-28T05:14:30;100155.31;;;-2.46
74915;BMP280;63475;45.140;-75.616;2023-01-28T05:15:31;100130.88;;;-2.65
74915;BMP280;63475;45.140;-75.616;2023-01-28T05:16:32;100143.31;;;-2.50
74915;BMP280;63475;45.140;-75.616;2023-01-28T05:17:34;100116.09;;;-2.65
74915;BMP280;63475;45.140;-75.616;2023-01-28T05:18:35;100148.81;;;-2.52
74915;BMP280;63475;45.140;-75.616;2023-01-28T05:19:36;100145.94;;;-2.59
74915;BMP280;63475;45.140;-75.616;2023-01-28T05:20:37;100146.06;;;-2.55
74915;BMP280;63475;45.140;-75.616;2023-01-28T05:21:38;100143.78;;;-2.57
74915;BMP280;63475;45.140;-75.616;2023-01-28T05:22:39;100138.13;;;-2.50
74915;BMP280;63475;45.140;-75.616;2023-01-28T05:23:40;100148.50;;;-2.50
74915;BMP280;63475;45.140;-75.616;2023-01-28T05:24:44;100139.75;;;-2.46
74915;BMP280;63475;45.140;-75.616;2023-01-28T05:25:45;100140.00;;;-2.59
74915;BMP280;63475;45.140;-75.616;2023-01-28T05:26:48;100145.78;;;-2.54
74915;BMP280;63475;45.140;-75.616;2023-01-28T05:27:50;100144.19;;;-2.46
74915;BMP280;63475;45.140;-75.616;2023-01-28T05:28:51;100133.38;;;-2.48
74915;BMP280;63475;45.140;-75.616;2023-01-28T05:29:52;100138.88;;;-2.50
74915;BMP280;63475;45.140;-75.616;2023-01-28T05:30:53;100132.63;;;-2.49
74915;BMP280;63475;45.140;-75.616;2023-01-28T05:31:54;100136.84;;;-2.44
74915;BMP280;63475;45.140;-75.616;2023-01-28T05:32:55;100117.06;;;-2.49
74915;BMP280;63475;45.140;-75.616;2023-01-28T05:33:56;100123.38;;;-2.58
74915;BMP280;63475;45.140;-75.616;2023-01-28T05:34:57;100093.91;;;-2.75
74915;BMP280;63475;45.140;-75.616;2023-01-28T05:35:58;100126.47;;;-2.65
74915;BMP280;63475;45.140;-75.616;2023-01-28T05:36:59;100099.75;;;-2.86
74915;BMP280;63475;45.140;-75.616;2023-01-28T05:38:00;100112.44;;;-2.64
74915;BMP280;63475;45.140;-75.616;2023-01-28T05:39:01;100116.63;;;-2.51
74915;BMP280;63475;45.140;-75.616;2023-01-28T05:40:02;100116.44;;;-2.46
74915;BMP280;63475;45.140;-75.616;2023-01-28T05:41:03;100116.22;;;-2.40
74915;BMP280;63475;45.140;-75.616;2023-01-28T05:42:04;100110.41;;;-2.37
74915;BMP280;63475;45.140;-75.616;2023-01-28T05:43:05;100109.72;;;-2.47
74915;BMP280;63475;45.140;-75.616;2023-01-28T05:44:06;100103.69;;;-2.38
74915;BMP280;63475;45.140;-75.616;2023-01-28T05:45:07;100105.22;;;-2.37
74915;BMP280;63475;45.140;-75.616;2023-01-28T05:46:08;100074.50;;;-2.48
74915;BMP280;63475;45.140;-75.616;2023-01-28T05:47:09;100103.19;;;-2.32
74915;BMP280;63475;45.140;-75.616;2023-01-28T05:48:10;100097.34;;;-2.29
74915;BMP280;63475;45.140;-75.616;2023-01-28T05:49:12;100094.31;;;-2.31
74915;BMP280;63475;45.140;-75.616;2023-01-28T05:50:13;100090.28;;;-2.40
74915;BMP280;63475;45.140;-75.616;2023-01-28T05:51:14;100101.66;;;-2.33
74915;BMP280;63475;45.140;-75.616;2023-01-28T05:52:15;100074.31;;;-2.42
74915;BMP280;63475;45.140;-75.616;2023-01-28T05:53:16;100101.28;;;-2.23
74915;BMP280;63475;45.140;-75.616;2023-01-28T05:54:17;100096.47;;;-2.33
74915;BMP280;63475;45.140;-75.616;2023-01-28T05:55:18;100084.56;;;-2.46
74915;BMP280;63475;45.140;-75.616;2023-01-28T05:56:19;100097.88;;;-2.35
74915;BMP280;63475;45.140;-75.616;2023-01-28T05:57:20;100100.34;;;-2.39
74915;BMP280;63475;45.140;-75.616;2023-01-28T05:58:21;100087.91;;;-2.46
74915;BMP280;63475;45.140;-75.616;2023-01-28T05:59:22;100082.41;;;-2.44
74915;BMP280;63475;45.140;-75.616;2023-01-28T06:00:23;100084.78;;;-2.60
74915;BMP280;63475;45.140;-75.616;2023-01-28T06:01:24;100077.34;;;-2.61
74915;BMP280;63475;45.140;-75.616;2023-01-28T06:02:25;100082.47;;;-2.53
74915;BMP280;63475;45.140;-75.616;2023-01-28T06:03:26;100085.00;;;-2.44
74915;BMP280;63475;45.140;-75.616;2023-01-28T06:04:27;100087.69;;;-2.40
74915;BMP280;63475;45.140;-75.616;2023-01-28T06:05:28;100048.78;;;-2.53
74915;BMP280;63475;45.140;-75.616;2023-01-28T06:06:29;100062.66;;;-2.36
74915;BMP280;63475;45.140;-75.616;2023-01-28T06:07:30;100087.94;;;-2.33
74915;BMP280;63475;45.140;-75.616;2023-01-28T06:08:31;100073.91;;;-2.32
74915;BMP280;63475;45.140;-75.616;2023-01-28T06:09:31;100087.97;;;-2.21
74915;BMP280;63475;45.140;-75.616;2023-01-28T06:10:32;100074.47;;;-2.27
74915;BMP280;63475;45.140;-75.616;2023-01-28T06:11:33;100086.91;;;-2.20